AirNav   Air Wisconsin Up To $57,000 Bonus
 
 1253 users online  

83MI St. Joseph Mercy Oakland-Bassett Street Helipad
Pontiac, Michigan, USA

GOING TO PONTIAC?


FAA INFORMATION EFFECTIVE 19 MAY 2022

Location

FAA Identifier: 83MI
Lat/Long: 42-36-43.6000N 083-16-33.1000W
42-36.726667N 083-16.551667W
42.6121111,-83.2758611
(estimated)
Elevation: 980 ft. / 299 m (estimated)
Variation: 08W (2020)
From city: 2 miles SW of PONTIAC, MI
Time zone: UTC -4 (UTC -5 during Standard Time)
Zip code: 48341

Heliport Operations

Heliport use: Private use, MEDICAL USE.
Activation date: 06/2015
Control tower: no
ARTCC: CLEVELAND CENTER
FSS: LANSING FLIGHT SERVICE STATION
Attendance: CONTINUOUS
Wind indicator: yes
Segmented circle: no

Heliport Communications

CTAF: 122.9
DETROIT APPROACH: 132.35
DETROIT DEPARTURE: 132.35
WX AWOS-3 at VLL (6 nm SE): 119.475 (248-288-4649)
WX ASOS at PTK (7 nm NW): 125.025 (248-886-8551)
WX ASOS at DET (17 nm SE): PHONE 313-371-9696

Nearby radio navigation aids

VOR radial/distance  VOR name  Freq  Var
SVMr052/18.6SALEM VORTAC114.3003W
DXOr016/24.3DETROIT VOR/DME113.4006W
FNTr142/29.7FLINT VORTAC116.9006W
CRLr016/34.8CARLETON VOR/DME115.7003W

 
NDB name  Hdg/Dist  Freq  Var  ID
GROSSE ILE357/31.141907WRYS .-. -.-- ...

Heliport Services

Runway Information

Helipad H1

Dimensions: 45 x 45 ft. / 14 x 14 m
Surface: asphalt, in good condition
Latitude: 42-36.726667N
Longitude: 083-16.551667W
Elevation: 980.0 ft.
Traffic pattern: leftleft

Heliport Ownership and Management from official FAA records

Ownership: Privately-owned
Owner: SAINT JOSEPH MERCY OAKLAND HOSPITAL
44405 WOODWARD ST
PONTIAC, MI 48341-5023
Phone 248-858-3000
Manager: MATHEW MARK
44405 WOODWARD ST
PONTIAC, MI 48341-5023
Phone 248-858-6444

Additional Remarks

FOR CD CTC DETROIT APCH AT 734-955-1404.

Instrument Procedures

There are no published instrument procedures at 83MI.

Some nearby airports with instrument procedures:

KVLL - Oakland/Troy Airport (6 nm SE)
KPTK - Oakland County International Airport (7 nm NW)
Y47 - Oakland Southwest Airport (17 nm SW)
KDET - Coleman A Young Municipal Airport (17 nm SE)
D98 - Romeo State Airport (17 nm NE)
1D2 - Canton-Plymouth-Mettetal Airport (18 nm SW)
57D - Ray Community Airport (19 nm NE)
KMTC - Selfridge Air National Guard Base (19 nm E)
 
Loc | Ops | Rwys | IFR | FBO | Links
Com | Nav | Svcs | Stats | Notes
Aerial photo
No photo
 
Airport distance calculator
Flying to St. Joseph Mercy Oakland-Bassett Street Helipad? Find the distance to fly.

From to 83MI

Sunrise and sunset
Times for 26-May-2022
 Local
(UTC-4)
 Zulu
(UTC)
Morning civil twilight05:2909:29
Sunrise06:0210:02
Sunset20:5800:58
Evening civil twilight21:3101:31

Current date and time
Zulu (UTC)  26-May-2022 21:59:55
Local (UTC-4)  26-May-2022 17:59:55
 
METAR
KVLL 
6nm SE 
262135Z AUTO 18006KT 10SM BKN012 BKN025 OVC075 22/18 A2985 RMK AO2 T02160184
KPTK 
7nm NW 
262125Z 15006KT 10SM -DZ FEW008 SCT016 BKN032 OVC130 21/19 A2982 RMK AO2 RAE15DZB24 P0000 T02110189
KDET 
17nm SE 
262137Z 19007KT 10SM BKN012 BKN019 OVC042 22/19 A2983 RMK AO2 RAE2054 P0000 T02220194
TAF
KPTK 
7nm NW 
261728Z 2618/2718 19012G20KT 6SM -SHRA SCT025 BKN035 TEMPO 2622/2701 3SM TSRA BR OVC030CB FM270100 18006KT P6SM OVC025 FM270800 20004KT 5SM BR SCT015 OVC025 FM271500 23006KT 3SM BR OVC020
KDET 
17nm SE 
261732Z 2618/2718 19012G20KT 6SM -SHRA BKN025 OVC050 TEMPO 2621/2624 3SM TSRA BR OVC030CB FM270100 18006KT P6SM OVC025 FM270800 20004KT 5SM BR SCT015 BKN025 FM271400 22006KT 6SM BR OVC020
NOTAMs
Click for the latest NOTAMs
NOTAMs are issued by the DoD/FAA and will open in a separate window not controlled by AirNav.

 

 
 

Would you like to see your business listed on this page?

 If your business provides an interesting product or service to pilots, flight crews, aircraft, or users of the St. Joseph Mercy Oakland-Bassett Street Helipad, you should consider listing it here.  To start the listing process, click on the button below
 
Add a business
 

Other Pages about St. Joseph Mercy Oakland-Bassett Street Helipad

Update a link
 
Copyright © AirNav, LLC. All rights reserved. Privacy Policy  Contact